sensor_id;sensor_type;location;lat;lon;timestamp;pressure;altitude;pressure_sealevel;temperature;humidity
58973;BME280;44750;52.040;7.472;2022-08-21T00:03:32;100621.25;;;19.70;21.33
58973;BME280;44750;52.040;7.472;2022-08-21T00:08:35;100624.16;;;19.68;19.39
58973;BME280;44750;52.040;7.472;2022-08-21T00:13:35;100584.75;;;19.43;19.39
58973;BME280;44750;52.040;7.472;2022-08-21T00:18:35;100605.47;;;19.32;16.63
58973;BME280;44750;52.040;7.472;2022-08-21T00:23:36;100609.72;;;19.28;13.66
58973;BME280;44750;52.040;7.472;2022-08-21T00:28:36;100617.50;;;19.31;11.91
58973;BME280;44750;52.040;7.472;2022-08-21T00:33:37;100608.44;;;19.30;10.78
58973;BME280;44750;52.040;7.472;2022-08-21T00:38:37;100620.91;;;19.26;9.35
58973;BME280;44750;52.040;7.472;2022-08-21T00:43:39;100599.59;;;19.15;8.66
58973;BME280;44750;52.040;7.472;2022-08-21T00:48:39;100621.09;;;19.04;6.20
58973;BME280;44750;52.040;7.472;2022-08-21T00:53:42;100646.88;;;19.17;1.99
58973;BME280;44750;52.040;7.472;2022-08-21T00:58:43;100645.78;;;19.18;0.80
58973;BME280;44750;52.040;7.472;2022-08-21T01:03:45;100637.38;;;19.13;0.39
58973;BME280;44750;52.040;7.472;2022-08-21T01:08:46;100636.31;;;19.07;0.00
58973;BME280;44750;52.040;7.472;2022-08-21T01:13:47;100644.53;;;19.07;0.00
58973;BME280;44750;52.040;7.472;2022-08-21T01:18:48;100627.84;;;19.02;0.00
58973;BME280;44750;52.040;7.472;2022-08-21T01:23:50;100621.28;;;18.83;0.00
58973;BME280;44750;52.040;7.472;2022-08-21T01:34:23;100648.09;;;18.74;0.00
58973;BME280;44750;52.040;7.472;2022-08-21T01:39:23;100644.91;;;18.64;0.00
58973;BME280;44750;52.040;7.472;2022-08-21T01:44:24;100662.81;;;18.60;0.00
58973;BME280;44750;52.040;7.472;2022-08-21T01:49:25;100670.38;;;18.58;0.00
58973;BME280;44750;52.040;7.472;2022-08-21T01:54:25;100676.28;;;18.54;0.00
58973;BME280;44750;52.040;7.472;2022-08-21T01:59:26;100666.81;;;18.50;0.00
58973;BME280;44750;52.040;7.472;2022-08-21T02:04:27;100657.69;;;18.43;0.00
58973;BME280;44750;52.040;7.472;2022-08-21T02:09:28;100663.56;;;18.33;0.00
58973;BME280;44750;52.040;7.472;2022-08-21T02:14:28;100654.28;;;18.21;0.00
58973;BME280;44750;52.040;7.472;2022-08-21T02:19:28;100677.84;;;18.15;0.00
58973;BME280;44750;52.040;7.472;2022-08-21T02:24:28;100665.78;;;18.03;0.00
58973;BME280;44750;52.040;7.472;2022-08-21T02:29:29;100681.56;;;18.01;0.00
58973;BME280;44750;52.040;7.472;2022-08-21T02:34:29;100688.09;;;18.00;0.00
58973;BME280;44750;52.040;7.472;2022-08-21T02:39:29;100694.41;;;18.00;0.00
58973;BME280;44750;52.040;7.472;2022-08-21T02:44:29;100667.97;;;17.86;0.00
58973;BME280;44750;52.040;7.472;2022-08-21T02:49:29;100701.28;;;17.89;0.00
58973;BME280;44750;52.040;7.472;2022-08-21T02:54:30;100685.44;;;17.78;0.00
58973;BME280;44750;52.040;7.472;2022-08-21T02:59:30;100690.25;;;17.76;0.00
58973;BME280;44750;52.040;7.472;2022-08-21T03:04:30;100691.94;;;17.77;0.00
58973;BME280;44750;52.040;7.472;2022-08-21T03:09:32;100694.69;;;17.77;0.00
58973;BME280;44750;52.040;7.472;2022-08-21T03:14:33;100704.13;;;17.75;0.00
58973;BME280;44750;52.040;7.472;2022-08-21T03:19:34;100697.59;;;17.69;0.00
58973;BME280;44750;52.040;7.472;2022-08-21T03:24:34;100680.66;;;17.59;0.00
58973;BME280;44750;52.040;7.472;2022-08-21T03:29:35;100680.38;;;17.47;0.00
58973;BME280;44750;52.040;7.472;2022-08-21T03:34:36;100694.25;;;17.45;0.00
58973;BME280;44750;52.040;7.472;2022-08-21T03:39:37;100707.31;;;17.50;0.00
58973;BME280;44750;52.040;7.472;2022-08-21T03:44:38;100693.78;;;17.42;0.00
58973;BME280;44750;52.040;7.472;2022-08-21T03:49:39;100697.34;;;17.35;0.00
58973;BME280;44750;52.040;7.472;2022-08-21T03:54:39;100697.91;;;17.31;0.00
58973;BME280;44750;52.040;7.472;2022-08-21T03:59:39;100684.97;;;17.18;0.00
58973;BME280;44750;52.040;7.472;2022-08-21T04:04:40;100702.88;;;17.20;0.00
58973;BME280;44750;52.040;7.472;2022-08-21T04:09:40;100702.66;;;17.15;0.00
58973;BME280;44750;52.040;7.472;2022-08-21T04:14:40;100719.06;;;17.15;0.00
58973;BME280;44750;52.040;7.472;2022-08-21T04:19:40;100716.31;;;17.15;0.00
58973;BME280;44750;52.040;7.472;2022-08-21T04:24:40;100726.59;;;17.13;0.00
58973;BME280;44750;52.040;7.472;2022-08-21T04:29:41;100702.25;;;16.97;0.00
58973;BME280;44750;52.040;7.472;2022-08-21T04:34:41;100722.72;;;17.01;0.00
58973;BME280;44750;52.040;7.472;2022-08-21T04:39:42;100732.16;;;16.98;0.00
58973;BME280;44750;52.040;7.472;2022-08-21T04:44:42;100734.22;;;16.96;0.00
58973;BME280;44750;52.040;7.472;2022-08-21T04:49:43;100715.38;;;16.86;0.00
58973;BME280;44750;52.040;7.472;2022-08-21T04:54:57;100720.66;;;16.88;0.00
58973;BME280;44750;52.040;7.472;2022-08-21T04:59:57;100754.91;;;17.05;0.00
58973;BME280;44750;52.040;7.472;2022-08-21T05:04:57;100745.63;;;17.00;0.00
58973;BME280;44750;52.040;7.472;2022-08-21T05:09:59;100773.09;;;17.13;0.00
58973;BME280;44750;52.040;7.472;2022-08-21T05:15:00;100783.56;;;17.31;0.00
58973;BME280;44750;52.040;7.472;2022-08-21T05:20:00;100783.88;;;17.43;0.00
58973;BME280;44750;52.040;7.472;2022-08-21T05:25:00;100771.34;;;17.49;0.00
58973;BME280;44750;52.040;7.472;2022-08-21T05:30:01;100766.22;;;17.46;0.00
58973;BME280;44750;52.040;7.472;2022-08-21T05:35:07;100779.13;;;17.52;0.00
58973;BME280;44750;52.040;7.472;2022-08-21T05:40:08;100787.81;;;17.55;0.00
58973;BME280;44750;52.040;7.472;2022-08-21T05:45:09;100792.03;;;17.58;0.00
58973;BME280;44750;52.040;7.472;2022-08-21T05:50:10;100804.78;;;17.72;0.00
58973;BME280;44750;52.040;7.472;2022-08-21T05:55:10;100794.69;;;17.73;0.00
58973;BME280;44750;52.040;7.472;2022-08-21T06:00:11;100791.94;;;17.73;0.00
58973;BME280;44750;52.040;7.472;2022-08-21T06:05:11;100796.59;;;17.79;0.00
58973;BME280;44750;52.040;7.472;2022-08-21T06:10:11;100799.50;;;17.93;0.00
58973;BME280;44750;52.040;7.472;2022-08-21T06:15:12;100821.88;;;18.03;0.00
58973;BME280;44750;52.040;7.472;2022-08-21T06:20:12;100814.38;;;18.12;0.00
58973;BME280;44750;52.040;7.472;2022-08-21T06:25:12;100831.97;;;18.31;0.00
58973;BME280;44750;52.040;7.472;2022-08-21T06:30:13;100860.00;;;18.61;0.00
58973;BME280;44750;52.040;7.472;2022-08-21T06:35:14;100861.78;;;18.82;0.00
58973;BME280;44750;52.040;7.472;2022-08-21T06:40:14;100871.44;;;19.20;0.00
58973;BME280;44750;52.040;7.472;2022-08-21T06:45:14;100823.75;;;19.28;0.00
58973;BME280;44750;52.040;7.472;2022-08-21T06:50:15;100822.53;;;19.50;0.00
58973;BME280;44750;52.040;7.472;2022-08-21T06:55:15;100810.75;;;19.83;0.00
58973;BME280;44750;52.040;7.472;2022-08-21T07:00:15;100780.28;;;20.05;0.00
58973;BME280;44750;52.040;7.472;2022-08-21T07:05:16;100792.81;;;20.60;0.00
58973;BME280;44750;52.040;7.472;2022-08-21T07:10:19;100710.34;;;20.92;0.00
58973;BME280;44750;52.040;7.472;2022-08-21T07:15:20;100646.72;;;21.32;3.40
58973;BME280;44750;52.040;7.472;2022-08-21T07:20:20;100518.75;;;21.60;23.69
58973;BME280;44750;52.040;7.472;2022-08-21T07:25:20;100411.41;;;21.83;40.06
58973;BME280;44750;52.040;7.472;2022-08-21T07:30:22;100380.06;;;22.32;55.64
58973;BME280;44750;52.040;7.472;2022-08-21T07:35:23;100271.72;;;22.31;73.20
58973;BME280;44750;52.040;7.472;2022-08-21T07:40:23;100230.69;;;22.47;82.10
58973;BME280;44750;52.040;7.472;2022-08-21T07:45:23;100264.91;;;22.75;85.82
58973;BME280;44750;52.040;7.472;2022-08-21T07:50:24;100198.75;;;22.92;89.59
58973;BME280;44750;52.040;7.472;2022-08-21T07:55:25;100167.19;;;23.16;93.75
58973;BME280;44750;52.040;7.472;2022-08-21T08:00:27;100110.41;;;23.20;98.56
58973;BME280;44750;52.040;7.472;2022-08-21T08:05:29;100091.19;;;23.48;100.00
58973;BME280;44750;52.040;7.472;2022-08-21T08:10:30;100079.22;;;23.42;100.00
58973;BME280;44750;52.040;7.472;2022-08-21T08:15:30;100126.19;;;23.81;98.70
58973;BME280;44750;52.040;7.472;2022-08-21T08:20:31;100105.59;;;24.11;99.25
58973;BME280;44750;52.040;7.472;2022-08-21T08:25:31;100040.66;;;23.92;100.00
58973;BME280;44750;52.040;7.472;2022-08-21T08:30:32;100040.47;;;24.26;100.00
58973;BME280;44750;52.040;7.472;2022-08-21T08:35:32;100007.22;;;24.15;100.00
58973;BME280;44750;52.040;7.472;2022-08-21T08:40:39;100015.47;;;24.43;100.00
58973;BME280;44750;52.040;7.472;2022-08-21T08:45:46;99984.00;;;24.49;100.00
58973;BME280;44750;52.040;7.472;2022-08-21T08:50:52;99992.03;;;24.83;100.00
58973;BME280;44750;52.040;7.472;2022-08-21T08:55:54;99874.38;;;24.75;100.00
58973;BME280;44750;52.040;7.472;2022-08-21T09:00:55;99885.63;;;25.06;100.00
58973;BME280;44750;52.040;7.472;2022-08-21T09:11:29;99667.06;;;24.68;100.00
58973;BME280;44750;52.040;7.472;2022-08-21T09:16:41;99730.03;;;25.14;100.00
58973;BME280;44750;52.040;7.472;2022-08-21T09:32:03;99586.53;;;25.68;100.00
58973;BME280;44750;52.040;7.472;2022-08-21T09:37:03;99652.22;;;25.67;100.00
58973;BME280;44750;52.040;7.472;2022-08-21T09:42:07;99748.63;;;26.07;100.00
58973;BME280;44750;52.040;7.472;2022-08-21T09:47:09;99656.31;;;25.91;100.00
58973;BME280;44750;52.040;7.472;2022-08-21T09:52:21;99696.75;;;26.17;100.00
58973;BME280;44750;52.040;7.472;2022-08-21T09:57:27;99631.66;;;25.89;100.00
58973;BME280;44750;52.040;7.472;2022-08-21T10:02:31;99642.72;;;25.94;100.00
58973;BME280;44750;52.040;7.472;2022-08-21T10:07:32;99608.00;;;26.12;100.00
58973;BME280;44750;52.040;7.472;2022-08-21T10:12:45;99584.78;;;25.93;100.00
58973;BME280;44750;52.040;7.472;2022-08-21T10:28:55;99709.16;;;26.41;100.00
58973;BME280;44750;52.040;7.472;2022-08-21T10:39:31;99666.88;;;27.09;100.00
58973;BME280;44750;52.040;7.472;2022-08-21T10:44:59;99826.88;;;27.10;100.00
58973;BME280;44750;52.040;7.472;2022-08-21T10:50:13;99835.78;;;27.07;100.00
58973;BME280;44750;52.040;7.472;2022-08-21T10:55:18;99901.78;;;27.26;100.00
58973;BME280;44750;52.040;7.472;2022-08-21T11:00:28;99898.50;;;27.13;100.00
58973;BME280;44750;52.040;7.472;2022-08-21T11:05:43;99983.34;;;27.71;100.00
58973;BME280;44750;52.040;7.472;2022-08-21T11:11:01;99930.34;;;27.52;100.00
58973;BME280;44750;52.040;7.472;2022-08-21T11:21:39;99919.69;;;27.64;100.00
58973;BME280;44750;52.040;7.472;2022-08-21T11:37:23;99874.13;;;27.60;95.92
58973;BME280;44750;52.040;7.472;2022-08-21T11:42:33;99893.75;;;27.84;94.45
58973;BME280;44750;52.040;7.472;2022-08-21T11:47:59;99844.63;;;27.64;93.30
58973;BME280;44750;52.040;7.472;2022-08-21T11:58:23;99857.63;;;27.79;92.71
58973;BME280;44750;52.040;7.472;2022-08-21T12:03:31;99931.03;;;27.78;91.67
58973;BME280;44750;52.040;7.472;2022-08-21T12:08:35;99749.09;;;27.10;87.50
58973;BME280;44750;52.040;7.472;2022-08-21T12:19:14;99908.78;;;27.23;92.60
58973;BME280;44750;52.040;7.472;2022-08-21T12:29:33;99853.69;;;27.41;91.88
58973;BME280;44750;52.040;7.472;2022-08-21T12:34:37;99903.28;;;27.68;90.99
58973;BME280;44750;52.040;7.472;2022-08-21T12:39:43;99894.06;;;27.78;90.31
58973;BME280;44750;52.040;7.472;2022-08-21T12:44:53;99794.22;;;27.36;88.27
58973;BME280;44750;52.040;7.472;2022-08-21T12:50:05;99878.22;;;27.73;88.17
58973;BME280;44750;52.040;7.472;2022-08-21T12:55:11;99807.19;;;27.91;85.01
58973;BME280;44750;52.040;7.472;2022-08-21T13:00:13;99827.38;;;27.73;84.32
58973;BME280;44750;52.040;7.472;2022-08-21T13:05:18;99970.09;;;28.47;83.75
58973;BME280;44750;52.040;7.472;2022-08-21T13:10:26;99853.13;;;28.52;79.88
58973;BME280;44750;52.040;7.472;2022-08-21T13:15:35;99816.38;;;28.50;79.47
58973;BME280;44750;52.040;7.472;2022-08-21T13:20:39;99875.97;;;28.49;80.72
58973;BME280;44750;52.040;7.472;2022-08-21T13:25:39;99762.13;;;28.24;77.72
58973;BME280;44750;52.040;7.472;2022-08-21T13:30:43;99705.94;;;27.63;79.08
58973;BME280;44750;52.040;7.472;2022-08-21T13:40:59;99776.31;;;27.93;80.76
58973;BME280;44750;52.040;7.472;2022-08-21T13:46:07;99886.78;;;28.22;81.65
58973;BME280;44750;52.040;7.472;2022-08-21T13:51:09;99715.94;;;27.93;80.37
58973;BME280;44750;52.040;7.472;2022-08-21T13:56:25;99775.84;;;28.15;80.05
58973;BME280;44750;52.040;7.472;2022-08-21T14:01:36;99753.50;;;27.91;82.00
58973;BME280;44750;52.040;7.472;2022-08-21T14:06:37;99711.47;;;27.68;83.22
58973;BME280;44750;52.040;7.472;2022-08-21T14:11:38;99871.94;;;27.97;84.86
58973;BME280;44750;52.040;7.472;2022-08-21T14:16:45;99790.16;;;27.98;82.05
58973;BME280;44750;52.040;7.472;2022-08-21T14:21:46;99787.31;;;28.08;81.79
58973;BME280;44750;52.040;7.472;2022-08-21T14:26:50;99813.59;;;28.50;79.27
58973;BME280;44750;52.040;7.472;2022-08-21T14:31:54;99767.19;;;28.46;78.51
58973;BME280;44750;52.040;7.472;2022-08-21T14:36:54;99632.75;;;27.97;79.97
58973;BME280;44750;52.040;7.472;2022-08-21T14:41:56;99708.50;;;27.89;82.29
58973;BME280;44750;52.040;7.472;2022-08-21T14:46:59;99568.75;;;27.19;83.42
58973;BME280;44750;52.040;7.472;2022-08-21T14:51:59;99636.81;;;26.82;86.31
58973;BME280;44750;52.040;7.472;2022-08-21T14:57:09;99793.19;;;27.22;86.48
58973;BME280;44750;52.040;7.472;2022-08-21T15:02:10;99743.00;;;27.08;86.80
58973;BME280;44750;52.040;7.472;2022-08-21T15:07:12;99738.66;;;26.92;88.60
58973;BME280;44750;52.040;7.472;2022-08-21T15:12:13;99811.88;;;27.11;88.76
58973;BME280;44750;52.040;7.472;2022-08-21T15:17:13;99747.16;;;27.06;89.12
58973;BME280;44750;52.040;7.472;2022-08-21T15:22:14;99760.25;;;27.00;90.43
58973;BME280;44750;52.040;7.472;2022-08-21T15:27:16;99846.22;;;27.26;89.92
58973;BME280;44750;52.040;7.472;2022-08-21T15:32:26;99804.81;;;27.29;89.24
58973;BME280;44750;52.040;7.472;2022-08-21T15:37:26;99766.56;;;27.16;90.03
58973;BME280;44750;52.040;7.472;2022-08-21T15:42:27;99775.16;;;27.19;88.80
58973;BME280;44750;52.040;7.472;2022-08-21T15:47:32;99807.56;;;27.34;88.63
58973;BME280;44750;52.040;7.472;2022-08-21T15:52:34;99834.97;;;27.57;88.36
58973;BME280;44750;52.040;7.472;2022-08-21T15:57:36;99767.75;;;27.49;87.91
58973;BME280;44750;52.040;7.472;2022-08-21T16:02:39;99739.50;;;27.37;88.13
58973;BME280;44750;52.040;7.472;2022-08-21T16:07:40;99759.97;;;27.51;87.28
58973;BME280;44750;52.040;7.472;2022-08-21T16:12:44;99686.72;;;27.37;86.45
58973;BME280;44750;52.040;7.472;2022-08-21T16:17:46;99728.31;;;27.47;86.76
58973;BME280;44750;52.040;7.472;2022-08-21T16:22:48;99637.00;;;27.30;85.33
58973;BME280;44750;52.040;7.472;2022-08-21T16:27:52;99627.63;;;27.21;85.83
58973;BME280;44750;52.040;7.472;2022-08-21T16:32:53;99654.44;;;27.41;84.63
58973;BME280;44750;52.040;7.472;2022-08-21T16:37:54;99565.34;;;27.27;82.05
58973;BME280;44750;52.040;7.472;2022-08-21T16:42:54;99545.72;;;27.18;81.91
58973;BME280;44750;52.040;7.472;2022-08-21T16:47:54;99514.81;;;26.96;82.74
58973;BME280;44750;52.040;7.472;2022-08-21T16:52:54;99547.88;;;26.92;83.84
58973;BME280;44750;52.040;7.472;2022-08-21T16:57:55;99537.38;;;26.89;83.49
58973;BME280;44750;52.040;7.472;2022-08-21T17:02:56;99552.91;;;26.90;83.92
58973;BME280;44750;52.040;7.472;2022-08-21T17:07:57;99527.72;;;26.81;83.80
58973;BME280;44750;52.040;7.472;2022-08-21T17:12:57;99487.88;;;26.62;84.63
58973;BME280;44750;52.040;7.472;2022-08-21T17:17:58;99527.88;;;26.56;85.65
58973;BME280;44750;52.040;7.472;2022-08-21T17:22:59;99516.84;;;26.45;85.70
58973;BME280;44750;52.040;7.472;2022-08-21T17:27:59;99539.63;;;26.42;86.34
58973;BME280;44750;52.040;7.472;2022-08-21T17:33:00;99559.66;;;26.34;87.24
58973;BME280;44750;52.040;7.472;2022-08-21T17:38:00;99586.84;;;26.32;88.29
58973;BME280;44750;52.040;7.472;2022-08-21T17:43:01;99624.28;;;26.34;89.53
58973;BME280;44750;52.040;7.472;2022-08-21T17:48:02;99640.69;;;26.26;91.20
58973;BME280;44750;52.040;7.472;2022-08-21T17:53:03;99642.97;;;26.08;92.85
58973;BME280;44750;52.040;7.472;2022-08-21T17:58:03;99728.34;;;26.22;93.77
58973;BME280;44750;52.040;7.472;2022-08-21T18:03:08;99718.94;;;26.17;93.31
58973;BME280;44750;52.040;7.472;2022-08-21T18:08:09;99744.44;;;26.25;93.93
58973;BME280;44750;52.040;7.472;2022-08-21T18:13:13;99750.28;;;26.18;94.70
58973;BME280;44750;52.040;7.472;2022-08-21T18:18:14;99726.44;;;26.01;96.65
58973;BME280;44750;52.040;7.472;2022-08-21T18:23:14;99746.69;;;25.92;97.10
58973;BME280;44750;52.040;7.472;2022-08-21T18:28:15;99760.28;;;25.88;98.10
58973;BME280;44750;52.040;7.472;2022-08-21T18:33:16;99769.16;;;25.75;99.31
58973;BME280;44750;52.040;7.472;2022-08-21T18:38:17;99785.78;;;25.64;100.00
58973;BME280;44750;52.040;7.472;2022-08-21T18:43:19;99786.03;;;25.58;100.00
58973;BME280;44750;52.040;7.472;2022-08-21T18:48:20;99803.22;;;25.54;100.00
58973;BME280;44750;52.040;7.472;2022-08-21T18:53:22;99798.16;;;25.31;100.00
58973;BME280;44750;52.040;7.472;2022-08-21T18:58:22;99819.22;;;25.27;100.00
58973;BME280;44750;52.040;7.472;2022-08-21T19:03:26;99813.66;;;25.11;100.00
58973;BME280;44750;52.040;7.472;2022-08-21T19:08:26;99803.81;;;24.73;100.00
58973;BME280;44750;52.040;7.472;2022-08-21T19:13:27;99824.31;;;24.34;100.00
58973;BME280;44750;52.040;7.472;2022-08-21T19:18:29;99899.44;;;24.20;100.00
58973;BME280;44750;52.040;7.472;2022-08-21T19:23:31;99922.00;;;24.12;100.00
58973;BME280;44750;52.040;7.472;2022-08-21T19:28:34;99961.25;;;23.87;100.00
58973;BME280;44750;52.040;7.472;2022-08-21T19:33:37;100002.16;;;23.85;100.00
58973;BME280;44750;52.040;7.472;2022-08-21T19:38:39;100030.53;;;23.80;100.00
58973;BME280;44750;52.040;7.472;2022-08-21T19:43:51;100024.63;;;23.49;100.00
58973;BME280;44750;52.040;7.472;2022-08-21T19:48:52;100095.72;;;23.37;100.00
58973;BME280;44750;52.040;7.472;2022-08-21T19:53:54;100117.13;;;23.30;100.00
58973;BME280;44750;52.040;7.472;2022-08-21T19:58:56;100120.06;;;23.06;100.00
58973;BME280;44750;52.040;7.472;2022-08-21T20:03:56;100161.03;;;22.97;100.00
58973;BME280;44750;52.040;7.472;2022-08-21T20:08:56;100179.78;;;22.95;100.00
58973;BME280;44750;52.040;7.472;2022-08-21T20:13:57;100185.16;;;22.73;100.00
58973;BME280;44750;52.040;7.472;2022-08-21T20:18:59;100213.72;;;22.67;100.00
58973;BME280;44750;52.040;7.472;2022-08-21T20:24:00;100239.41;;;22.67;100.00
58973;BME280;44750;52.040;7.472;2022-08-21T20:29:01;100252.22;;;22.62;100.00
58973;BME280;44750;52.040;7.472;2022-08-21T20:34:02;100284.03;;;22.52;97.28
58973;BME280;44750;52.040;7.472;2022-08-21T20:39:03;100315.50;;;22.40;91.76
58973;BME280;44750;52.040;7.472;2022-08-21T20:44:03;100344.00;;;22.33;85.03
58973;BME280;44750;52.040;7.472;2022-08-21T20:49:04;100335.00;;;22.14;80.46
58973;BME280;44750;52.040;7.472;2022-08-21T20:59:50;100382.31;;;21.87;67.00
58973;BME280;44750;52.040;7.472;2022-08-21T21:10:02;100438.59;;;21.80;57.36
58973;BME280;44750;52.040;7.472;2022-08-21T21:15:26;100461.00;;;21.83;53.28
58973;BME280;44750;52.040;7.472;2022-08-21T21:20:51;100464.81;;;21.82;53.04
58973;BME280;44750;52.040;7.472;2022-08-21T21:26:08;100481.44;;;21.76;51.78
58973;BME280;44750;52.040;7.472;2022-08-21T21:31:11;100467.47;;;21.59;50.64
58973;BME280;44750;52.040;7.472;2022-08-21T21:41:34;100512.75;;;21.44;42.34
58973;BME280;44750;52.040;7.472;2022-08-21T22:08:12;100583.09;;;20.96;20.85
58973;BME280;44750;52.040;7.472;2022-08-21T22:18:53;100589.50;;;20.65;9.52
58973;BME280;44750;52.040;7.472;2022-08-21T22:23:59;100589.78;;;20.50;3.62
58973;BME280;44750;52.040;7.472;2022-08-21T22:29:03;100595.63;;;20.28;0.00
58973;BME280;44750;52.040;7.472;2022-08-21T22:34:06;100614.53;;;20.18;0.00
58973;BME280;44750;52.040;7.472;2022-08-21T22:39:14;100612.88;;;20.10;0.00
58973;BME280;44750;52.040;7.472;2022-08-21T22:44:23;100616.94;;;20.01;0.00
58973;BME280;44750;52.040;7.472;2022-08-21T22:49:31;100626.88;;;19.88;0.00
58973;BME280;44750;52.040;7.472;2022-08-21T22:54:43;100632.03;;;19.65;0.00
58973;BME280;44750;52.040;7.472;2022-08-21T23:00:05;100646.16;;;19.62;0.00
58973;BME280;44750;52.040;7.472;2022-08-21T23:10:27;100673.66;;;19.42;0.00
58973;BME280;44750;52.040;7.472;2022-08-21T23:15:37;100679.56;;;19.38;0.00
58973;BME280;44750;52.040;7.472;2022-08-21T23:20:47;100689.88;;;19.50;0.00
58973;BME280;44750;52.040;7.472;2022-08-21T23:26:48;100658.25;;;19.20;0.00
58973;BME280;44750;52.040;7.472;2022-08-21T23:31:45;100703.84;;;19.21;0.00
58973;BME280;44750;52.040;7.472;2022-08-21T23:37:01;100724.75;;;19.36;0.00
58973;BME280;44750;52.040;7.472;2022-08-21T23:42:48;100700.88;;;19.16;0.00
58973;BME280;44750;52.040;7.472;2022-08-21T23:53:14;100736.56;;;19.16;0.00
